createdAt,value
2022-09-07T00:22:36.341Z,100940.84
2022-09-07T00:25:07.163Z,100935.66
2022-09-07T00:32:51.816Z,100941.16
2022-09-07T01:30:01.204Z,100918.09
2022-09-07T01:50:23.371Z,100922.31
2022-09-07T01:53:17.576Z,100910.63
2022-09-07T01:56:39.994Z,100918.59
2022-09-07T02:00:36.667Z,100916.41
2022-09-07T02:03:09.784Z,100908.19
2022-09-07T02:18:23.083Z,100899.13
2022-09-07T02:39:06.294Z,100893.59
2022-09-07T02:42:06.230Z,100904.94
2022-09-07T04:09:20.521Z,100846.34
2022-09-07T04:21:21.163Z,100834.84
2022-09-07T04:31:49.801Z,100837.19
2022-09-07T04:38:43.896Z,100837.19
2022-09-07T04:41:25.403Z,100842.66
2022-09-07T04:43:58.806Z,100840.63
2022-09-07T04:49:37.087Z,100839.59
2022-09-07T04:52:22.609Z,100845.69
2022-09-07T04:54:56.223Z,100838.66
2022-09-07T04:57:27.971Z,100847.25
2022-09-07T05:00:08.216Z,100849.28
2022-09-07T05:02:37.067Z,100845.56
2022-09-07T05:05:11.247Z,100838.81
2022-09-07T05:07:44.408Z,100837.13
2022-09-07T05:10:22.189Z,100836.13
2022-09-07T05:12:54.442Z,100841.53
2022-09-07T05:15:30.586Z,100839.50
2022-09-07T05:17:59.772Z,100839.38
2022-09-07T05:20:31.754Z,100838.19
2022-09-07T05:23:14.076Z,100836.03
2022-09-07T05:25:48.072Z,100835.31
2022-09-07T05:28:19.551Z,100837.63
2022-09-07T05:36:47.242Z,100824.56
2022-09-07T05:39:17.001Z,100827.47
2022-09-07T05:41:48.196Z,100834.13
2022-09-07T05:47:13.771Z,100827.22
2022-09-07T05:49:43.483Z,100822.16
2022-09-07T05:52:15.902Z,100825.66
2022-09-07T05:54:44.418Z,100834.34
2022-09-07T05:57:18.598Z,100830.16
2022-09-07T05:59:46.596Z,100834.50
2022-09-07T06:02:17.201Z,100838.38
2022-09-07T06:04:48.757Z,100834.03
2022-09-07T06:07:23.420Z,100825.34
2022-09-07T06:12:52.692Z,100827.53
2022-09-07T06:15:24.051Z,100820.88
2022-09-07T06:17:59.795Z,100827.19
2022-09-07T06:20:31.725Z,100834.53
2022-09-07T06:23:10.594Z,100841.44
2022-09-07T06:25:50.433Z,100840.81
2022-09-07T06:28:21.080Z,100831.28
2022-09-07T06:30:55.363Z,100830.22
2022-09-07T06:33:23.479Z,100824.53
2022-09-07T06:36:02.511Z,100826.81
2022-09-07T06:38:34.172Z,100825.47
2022-09-07T06:44:09.599Z,100820.63
2022-09-07T06:49:31.995Z,100826.59
2022-09-07T06:52:05.419Z,100830.13
2022-09-07T06:57:24.128Z,100833.16
2022-09-07T06:59:53.373Z,100829.28
2022-09-07T07:02:23.184Z,100823.34
2022-09-07T07:04:54.272Z,100813.25
2022-09-07T07:07:25.369Z,100815.56
2022-09-07T07:09:53.303Z,100805.50
2022-09-07T07:14:46.997Z,100803.06
2022-09-07T07:17:16.808Z,100794.94
2022-09-07T07:19:44.549Z,100797.94
2022-09-07T07:22:35.920Z,100799.84
2022-09-07T07:24:59.665Z,100803.69
2022-09-07T07:27:27.230Z,100800.03
2022-09-07T07:29:54.993Z,100800.47
2022-09-07T07:32:22.962Z,100788.84
2022-09-07T07:34:50.725Z,100779.50
2022-09-07T07:44:09.519Z,100801.47
2022-09-07T07:46:40.317Z,100800.75
2022-09-07T07:49:10.853Z,100805.72
2022-09-07T07:54:24.342Z,100796.81
2022-09-07T07:56:53.040Z,100796.84
2022-09-07T07:59:21.746Z,100796.44
2022-09-07T08:01:49.712Z,100786.50
2022-09-07T08:04:17.455Z,100782.84
2022-09-07T08:06:45.253Z,100776.53
2022-09-07T08:09:12.894Z,100782.28
2022-09-07T08:11:40.651Z,100785.41
2022-09-07T08:14:09.568Z,100787.25
2022-09-07T08:16:38.416Z,100791.03
2022-09-07T08:19:07.400Z,100786.69
2022-09-07T08:21:35.375Z,100796.56
2022-09-07T08:24:05.562Z,100798.41
2022-09-07T08:26:33.533Z,100797.13
2022-09-07T08:29:04.084Z,100806.13
2022-09-07T08:34:15.624Z,100793.75
2022-09-07T08:36:45.614Z,100801.63
2022-09-07T08:39:13.884Z,100805.28
2022-09-07T08:42:38.912Z,100803.44
2022-09-07T08:45:15.995Z,100797.66
2022-09-07T08:47:52.592Z,100795.78
2022-09-07T08:50:44.674Z,100790.72
2022-09-07T08:53:36.773Z,100775.22
2022-09-07T08:56:12.454Z,100768.97
2022-09-07T08:58:49.631Z,100758.25
2022-09-07T09:01:31.453Z,100761.84
2022-09-07T09:04:18.155Z,100757.44
2022-09-07T09:07:19.510Z,100767.47
2022-09-07T09:10:20.334Z,100758.88
2022-09-07T09:13:06.023Z,100756.34
2022-09-07T09:16:07.347Z,100756.44
2022-09-07T09:18:47.953Z,100749.03
2022-09-07T09:21:20.061Z,100755.44
2022-09-07T09:23:50.448Z,100757.34
2022-09-07T09:26:33.902Z,100760.47
2022-09-07T09:29:23.621Z,100754.81
2022-09-07T09:31:56.160Z,100763.22
2022-09-07T09:34:29.406Z,100762.41
2022-09-07T09:37:00.586Z,100762.66
2022-09-07T09:39:38.378Z,100755.53
2022-09-07T09:42:34.147Z,100749.38
2022-09-07T09:45:29.297Z,100739.22
2022-09-07T09:48:04.105Z,100749.81
2022-09-07T09:53:33.356Z,100733.19
2022-09-07T09:56:04.503Z,100737.56
2022-09-07T10:18:44.018Z,100719.50
2022-09-07T10:24:05.460Z,100710.25
2022-09-07T10:26:37.695Z,100709.41
2022-09-07T10:29:17.357Z,100702.47
2022-09-07T10:32:05.783Z,100697.88
2022-09-07T10:35:05.265Z,100703.94
2022-09-07T10:37:50.907Z,100698.69
2022-09-07T10:40:38.107Z,100694.13
2022-09-07T10:43:38.953Z,100701.53
2022-09-07T10:49:35.616Z,100711.81
2022-09-07T10:52:20.666Z,100700.03
2022-09-07T10:58:14.440Z,100707.78
2022-09-07T11:01:07.039Z,100700.72
2022-09-07T11:03:49.611Z,100705.06
2022-09-07T11:06:23.268Z,100696.00
2022-09-07T11:09:34.874Z,100687.44
2022-09-07T11:12:14.014Z,100681.91
2022-09-07T11:15:16.285Z,100677.66
2022-09-07T11:17:57.187Z,100681.50
2022-09-07T11:20:38.795Z,100680.44
2022-09-07T11:23:18.895Z,100682.28
2022-09-07T11:26:19.534Z,100688.81
2022-09-07T11:31:48.894Z,100684.19
2022-09-07T11:34:24.531Z,100687.66
2022-09-07T11:37:02.869Z,100694.69
2022-09-07T11:40:04.363Z,100704.19
2022-09-07T11:42:50.339Z,100695.38
2022-09-07T11:45:34.243Z,100692.91
2022-09-07T11:48:31.379Z,100690.22
2022-09-07T11:51:25.450Z,100683.63
2022-09-07T11:54:04.009Z,100683.81
2022-09-07T11:56:37.543Z,100678.56
2022-09-07T11:59:36.992Z,100685.31
2022-09-07T12:02:48.407Z,100685.50
2022-09-07T12:05:53.854Z,100691.56
2022-09-07T12:09:02.961Z,100687.63
2022-09-07T12:11:38.352Z,100682.53
2022-09-07T12:14:15.808Z,100677.81
2022-09-07T12:17:01.883Z,100684.75
2022-09-07T12:19:30.281Z,100675.72
2022-09-07T12:21:59.976Z,100667.63
2022-09-07T12:24:47.347Z,100664.03
2022-09-07T12:27:30.055Z,100661.16
2022-09-07T12:30:05.898Z,100661.63
2022-09-07T12:32:56.171Z,100663.44
2022-09-07T12:35:32.769Z,100663.44
2022-09-07T12:38:31.527Z,100660.34
2022-09-07T12:41:22.027Z,100656.97
2022-09-07T12:43:54.819Z,100656.56
2022-09-07T12:46:35.799Z,100652.84
2022-09-07T12:49:09.874Z,100654.31
2022-09-07T12:54:39.531Z,100652.84
2022-09-07T12:57:29.695Z,100643.00
2022-09-07T13:00:07.649Z,100636.59
2022-09-07T13:09:24.655Z,100640.50
2022-09-07T13:11:53.167Z,100633.09
2022-09-07T13:14:34.508Z,100629.09
2022-09-07T13:17:36.527Z,100633.19
2022-09-07T13:20:07.469Z,100631.03
2022-09-07T13:22:35.418Z,100624.81
2022-09-07T13:26:01.835Z,100632.06
2022-09-07T13:28:54.966Z,100629.91
2022-09-07T13:35:08.321Z,100637.09
2022-09-07T13:41:23.738Z,100617.00
2022-09-07T13:43:59.104Z,100613.56
2022-09-07T13:47:07.052Z,100609.38
2022-09-07T13:57:58.805Z,100615.44
2022-09-07T14:01:05.738Z,100620.47
2022-09-07T14:04:30.816Z,100616.75
2022-09-07T14:07:37.065Z,100610.16
2022-09-07T14:10:29.377Z,100610.09
2022-09-07T14:13:37.269Z,100623.09
2022-09-07T14:16:44.161Z,100612.38
2022-09-07T14:26:38.982Z,100604.72
2022-09-07T14:29:06.681Z,100604.53
2022-09-07T14:32:14.551Z,100606.78
2022-09-07T14:37:39.927Z,100591.25
2022-09-07T14:40:31.552Z,100598.84
2022-09-07T14:50:10.712Z,100594.09
2022-09-07T14:53:40.948Z,100592.66
2022-09-07T14:59:57.720Z,100592.97
2022-09-07T15:02:46.929Z,100597.91
2022-09-07T15:05:39.600Z,100592.88
2022-09-07T15:11:39.322Z,100594.38
2022-09-07T15:14:36.382Z,100582.56
2022-09-07T15:21:24.716Z,100578.25
2022-09-07T15:24:35.555Z,100581.91
2022-09-07T15:31:40.524Z,100583.16
2022-09-07T15:33:55.036Z,100571.84
2022-09-07T15:36:39.009Z,100585.34
2022-09-07T15:40:11.263Z,100567.09
2022-09-07T15:43:08.519Z,100565.25
2022-09-07T15:45:39.678Z,100562.88
2022-09-07T15:48:28.319Z,100568.59
2022-09-07T15:55:06.245Z,100558.59
2022-09-07T15:57:59.519Z,100557.69
2022-09-07T16:04:54.622Z,100552.97
2022-09-07T16:13:18.204Z,100547.25
2022-09-07T16:18:31.365Z,100544.66
2022-09-07T16:18:46.555Z,100548.22
2022-09-07T16:21:17.095Z,100539.66
2022-09-07T16:23:56.310Z,100545.78
2022-09-07T16:26:27.180Z,100540.53
2022-09-07T16:28:58.841Z,100546.66
2022-09-07T16:31:32.566Z,100546.06
2022-09-07T16:34:25.463Z,100536.63
2022-09-07T16:36:54.633Z,100530.00
2022-09-07T16:39:27.055Z,100521.09
2022-09-07T16:42:18.251Z,100515.16
2022-09-07T16:44:53.742Z,100509.88
2022-09-07T16:47:50.905Z,100511.47
2022-09-07T16:50:27.728Z,100515.50
2022-09-07T16:53:02.889Z,100512.94
2022-09-07T16:55:52.247Z,100506.81
2022-09-07T16:58:36.959Z,100507.66
2022-09-07T17:01:19.845Z,100513.41
2022-09-07T17:04:06.677Z,100521.03
2022-09-07T17:06:38.611Z,100529.22
2022-09-07T17:09:27.688Z,100526.72
2022-09-07T17:12:03.627Z,100530.25
2022-09-07T17:14:38.441Z,100530.16
2022-09-07T17:17:13.353Z,100528.56
2022-09-07T17:19:46.939Z,100524.09
2022-09-07T17:22:14.923Z,100526.16
2022-09-07T17:24:50.497Z,100520.09
2022-09-07T17:30:00.033Z,100523.53
2022-09-07T17:32:33.911Z,100528.91
2022-09-07T17:35:10.481Z,100537.66
2022-09-07T17:38:00.943Z,100535.59
2022-09-07T17:40:44.290Z,100530.50
2022-09-07T17:46:10.578Z,100524.97
2022-09-07T17:49:10.478Z,100520.66
2022-09-07T17:52:26.308Z,100538.69
2022-09-07T17:55:09.330Z,100535.97
2022-09-07T17:58:24.659Z,100527.66
2022-09-07T18:01:23.946Z,100521.84
2022-09-07T18:07:04.599Z,100523.06
2022-09-07T18:12:17.223Z,100530.63
2022-09-07T18:18:30.610Z,100544.25
2022-09-07T18:21:28.081Z,100546.50
2022-09-07T18:36:59.013Z,100565.97
2022-09-07T18:46:22.862Z,100578.09
2022-09-07T18:48:58.232Z,100574.22
2022-09-07T18:55:29.254Z,100581.59
2022-09-07T19:01:20.396Z,100581.28
2022-09-07T19:07:29.846Z,100572.75
2022-09-07T19:10:41.280Z,100571.41
2022-09-07T19:16:25.282Z,100574.06
2022-09-07T19:19:57.283Z,100570.72
2022-09-07T19:26:20.839Z,100571.50
2022-09-07T19:28:47.959Z,100569.84
2022-09-07T19:34:44.631Z,100562.59
2022-09-07T19:37:28.222Z,100565.13
2022-09-07T19:43:34.739Z,100567.97
2022-09-07T19:49:17.595Z,100573.34
2022-09-07T19:52:17.530Z,100562.47
2022-09-07T19:55:09.235Z,100565.28
2022-09-07T19:58:33.043Z,100561.25
2022-09-07T20:01:16.685Z,100560.38
2022-09-07T20:04:24.627Z,100549.69
2022-09-07T20:10:43.390Z,100533.09
2022-09-07T20:13:28.542Z,100532.78
2022-09-07T20:16:04.758Z,100527.41
2022-09-07T20:19:05.655Z,100529.72
2022-09-07T20:24:45.135Z,100526.28
2022-09-07T20:27:22.608Z,100512.03
2022-09-07T20:29:56.352Z,100516.56
2022-09-07T20:32:29.166Z,100511.69
2022-09-07T20:35:05.784Z,100515.38
2022-09-07T20:38:14.943Z,100513.19
2022-09-07T20:40:26.270Z,100507.66
2022-09-07T20:42:59.085Z,100499.09
2022-09-07T20:45:44.399Z,100506.91
2022-09-07T20:48:15.776Z,100504.72
2022-09-07T20:53:53.382Z,100504.50
2022-09-07T20:56:30.558Z,100498.78
2022-09-07T20:59:12.652Z,100491.09
2022-09-07T21:01:45.500Z,100491.41
2022-09-07T21:04:18.359Z,100486.19
2022-09-07T21:07:00.776Z,100485.31
2022-09-07T21:09:32.308Z,100488.06
2022-09-07T21:12:02.737Z,100497.47
2022-09-07T21:17:34.329Z,100495.41
2022-09-07T21:20:10.554Z,100493.03
2022-09-07T21:22:44.804Z,100497.72
2022-09-07T21:25:25.610Z,100487.34
2022-09-07T21:28:01.961Z,100487.34
2022-09-07T21:33:40.312Z,100488.03
2022-09-07T21:36:26.325Z,100485.69
2022-09-07T21:39:02.604Z,100488.03
2022-09-07T21:44:28.116Z,100476.75
2022-09-07T21:47:08.272Z,100477.25
2022-09-07T21:49:56.642Z,100480.38
2022-09-07T21:52:25.820Z,100482.56
2022-09-07T21:54:54.409Z,100484.69
2022-09-07T21:57:24.044Z,100492.88
2022-09-07T21:59:56.738Z,100488.03
2022-09-07T22:02:30.826Z,100485.69
2022-09-07T22:05:07.401Z,100488.22
2022-09-07T22:07:50.512Z,100492.19
2022-09-07T22:10:19.654Z,100485.94
2022-09-07T22:12:50.643Z,100489.25
2022-09-07T22:15:22.910Z,100495.66
2022-09-07T22:17:56.330Z,100479.41
2022-09-07T22:20:29.681Z,100492.06
2022-09-07T22:23:50.623Z,100499.09
2022-09-07T22:26:25.794Z,100495.13
2022-09-07T22:28:58.193Z,100498.66
2022-09-07T22:31:37.784Z,100500.06
2022-09-07T22:34:13.884Z,100493.50
2022-09-07T22:36:50.452Z,100490.47
2022-09-07T22:39:21.273Z,100489.09
2022-09-07T22:41:55.184Z,100479.28
2022-09-07T22:44:24.831Z,100493.47
2022-09-07T22:46:57.286Z,100495.47
2022-09-07T22:49:29.359Z,100495.94
2022-09-07T22:52:01.099Z,100499.34
2022-09-07T22:54:33.834Z,100491.34
2022-09-07T22:57:06.029Z,100489.06
2022-09-07T22:59:36.558Z,100473.34
2022-09-07T23:02:07.021Z,100466.25
2022-09-07T23:04:38.606Z,100464.31
2022-09-07T23:07:13.391Z,100464.06
2022-09-07T23:09:43.695Z,100467.13
2022-09-07T23:12:15.834Z,100463.34
2022-09-07T23:14:45.623Z,100451.19
2022-09-07T23:17:21.034Z,100456.84
2022-09-07T23:23:16.117Z,100442.41
2022-09-07T23:25:51.589Z,100445.81
2022-09-07T23:31:25.320Z,100447.41
2022-09-07T23:36:55.435Z,100447.47
2022-09-07T23:39:53.569Z,100445.31
2022-09-07T23:42:26.336Z,100444.47
2022-09-07T23:45:00.538Z,100437.47
2022-09-07T23:47:30.480Z,100435.97
2022-09-07T23:50:06.379Z,100432.44
2022-09-07T23:52:52.403Z,100428.38
2022-09-07T23:55:27.404Z,100429.38
2022-09-07T23:58:01.277Z,100416.47
